Lome, Togo

6:45 AM GMT on July 28, 2016 (GMT +0000)
Tokoin | | Change Station

Elev 82 ft 6.17 °N, 1.25 °E | Updated 15 minutes ago

Scattered Clouds
Scattered Clouds
75 °F
Feels Like 75 °F
N
6
Wind Variable Wind from SW

Today
High -- | Low -- °F
--% Chance of Precip.
Yesterday
High -- | Low -- °F
Precip. -- in
Pressure 29.95 in
Visibility 5.0 miles
Clouds Scattered Clouds 1000 ft
Dew Point 75 °F
Humidity 100%
Rainfall 0.00 in
Snow Depth Not available.
5:49 AM 6:13 PM
Waning Crescent, 35% visible
METAR DXXX 280630Z 23005KT 8000 SCT010 24/24 Q1014 NOSIG
Pressure 29.95 in
Visibility 5.0 miles
Clouds Scattered Clouds 1000 ft
Dew Point 75 °F
Humidity 100%
Rainfall 0.00 in
Snow Depth Not available.
5:49 AM 6:13 PM
Waning Crescent, 35% visible
METAR DXXX 280630Z 23005KT 8000 SCT010 24/24 Q1014 NOSIG

10-Day Weather Forecast

No radar image for this location.
×

Almanac

Astronomy

Jul. 28, 2016 Rise Set
Actual Time
Civil Twilight
Nautical Twilight
Astronomical Twilight
Moon
Length of Visible Light
Length of Day
Tomorrow will be .
, % of the Moon is Illuminated

Today's Extremes

Country Highs Country Lows

Community

WunderPhotos

Upload Photos

1,928,064 photos uploaded!

WunderBlog® & News

Nearby

Air Quality

  Air Quality AQ Index Pollutant
Not available.

Snow Depth

Station Depth Elevation

Earthquake Activity

City Distance Mag. Time & Date
Minimum magnitude displayed is 2.5.

Coastal Water Temperatures

Place Temperature

Stations

Nearby Weather Stations

Station Location Temp. Windchill Dew Point Humidity Wind Precip. Elev Updated Type